createdAt,value
2023-02-01T00:00:44.554Z,59.80
2023-02-01T00:01:44.540Z,54.00
2023-02-01T00:02:44.545Z,56.80
2023-02-01T00:03:44.517Z,62.30
2023-02-01T00:04:44.498Z,52.50
2023-02-01T00:05:44.481Z,54.40
2023-02-01T00:06:44.500Z,56.40
2023-02-01T00:07:44.470Z,51.60
2023-02-01T00:08:44.460Z,57.40
2023-02-01T00:09:44.441Z,60.20
2023-02-01T00:10:44.443Z,56.00
2023-02-01T00:11:44.441Z,61.10
2023-02-01T00:12:44.417Z,57.20
2023-02-01T00:13:44.420Z,57.50
2023-02-01T00:14:44.393Z,53.40
2023-02-01T00:15:44.479Z,56.10
2023-02-01T00:16:44.399Z,60.00
2023-02-01T00:17:44.360Z,57.10
2023-02-01T00:18:44.353Z,55.80
2023-02-01T00:19:44.333Z,57.60
2023-02-01T00:20:44.334Z,56.10
2023-02-01T00:21:44.335Z,57.40
2023-02-01T00:22:44.318Z,54.60
2023-02-01T00:23:44.307Z,55.30
2023-02-01T00:24:44.297Z,64.10
2023-02-01T00:25:44.274Z,56.50
2023-02-01T00:26:44.390Z,55.40
2023-02-01T00:27:44.262Z,59.30
2023-02-01T00:28:44.269Z,54.30
2023-02-01T00:29:44.247Z,62.80
2023-02-01T00:30:44.270Z,58.80
2023-02-01T00:31:44.324Z,56.00
2023-02-01T00:32:44.208Z,60.30
2023-02-01T00:33:44.209Z,55.20
2023-02-01T00:34:44.196Z,62.70
2023-02-01T00:35:44.178Z,54.40
2023-02-01T00:36:44.188Z,61.50
2023-02-01T00:37:44.158Z,54.90
2023-02-01T00:38:44.167Z,50.00
2023-02-01T00:39:44.130Z,58.20
2023-02-01T00:40:44.130Z,59.30
2023-02-01T00:41:44.143Z,57.70
2023-02-01T00:42:44.118Z,56.30
2023-02-01T00:43:44.103Z,56.20
2023-02-01T00:44:44.093Z,51.90
2023-02-01T00:45:44.084Z,55.40
2023-02-01T00:46:44.119Z,51.70
2023-02-01T00:47:44.061Z,60.90
2023-02-01T00:48:44.053Z,60.10
2023-02-01T00:49:44.042Z,64.20
2023-02-01T00:50:44.023Z,54.50
2023-02-01T00:51:44.044Z,49.50
2023-02-01T00:52:44.013Z,54.80
2023-02-01T00:53:44.004Z,52.10
2023-02-01T00:54:43.986Z,51.50
2023-02-01T00:55:43.973Z,53.30
2023-02-01T00:56:43.986Z,53.70
2023-02-01T00:57:43.955Z,64.00
2023-02-01T00:58:45.768Z,57.60
2023-02-01T00:59:43.939Z,57.90
2023-02-01T01:00:43.967Z,55.40
2023-02-01T01:01:44.744Z,60.70
2023-02-01T01:02:44.015Z,60.40
2023-02-01T01:03:43.901Z,55.50
2023-02-01T01:04:43.887Z,53.40
2023-02-01T01:05:43.878Z,47.80
2023-02-01T01:06:43.889Z,57.20
2023-02-01T01:07:43.849Z,63.40
2023-02-01T01:08:44.847Z,50.90
2023-02-01T01:09:43.837Z,56.80
2023-02-01T01:10:43.831Z,57.20
2023-02-01T01:11:43.816Z,57.20
2023-02-01T01:12:43.828Z,62.50
2023-02-01T01:13:43.864Z,58.80
2023-02-01T01:14:43.789Z,52.30
2023-02-01T01:15:43.796Z,50.70
2023-02-01T01:16:43.760Z,53.80
2023-02-01T01:17:43.779Z,47.60
2023-02-01T01:18:43.745Z,59.50
2023-02-01T01:19:43.732Z,58.30
2023-02-01T01:20:43.721Z,49.00
2023-02-01T01:21:43.714Z,56.40
2023-02-01T01:22:43.735Z,56.50
2023-02-01T01:23:43.697Z,51.40
2023-02-01T01:24:43.692Z,49.70
2023-02-01T01:25:43.674Z,48.60
2023-02-01T01:26:43.669Z,56.20
2023-02-01T01:27:43.704Z,55.50
2023-02-01T01:28:43.645Z,57.40
2023-02-01T01:29:43.633Z,52.70
2023-02-01T01:30:43.654Z,60.80
2023-02-01T01:31:43.630Z,54.40
2023-02-01T01:32:43.618Z,62.10
2023-02-01T01:33:43.615Z,54.50
2023-02-01T01:34:43.580Z,53.30
2023-02-01T01:35:43.568Z,61.80
2023-02-01T01:36:43.566Z,63.70
2023-02-01T01:37:43.574Z,57.00
2023-02-01T01:38:43.593Z,57.40
2023-02-01T01:39:43.537Z,56.90
2023-02-01T01:40:43.515Z,51.90
2023-02-01T01:41:43.507Z,54.40
2023-02-01T01:42:43.518Z,61.00
2023-02-01T01:43:43.495Z,55.60
2023-02-01T01:44:43.477Z,54.30
2023-02-01T01:45:43.469Z,55.40
2023-02-01T01:46:43.479Z,59.20
2023-02-01T01:47:43.473Z,48.90
2023-02-01T01:48:43.441Z,59.40
2023-02-01T01:49:43.430Z,54.00
2023-02-01T01:50:43.423Z,58.30
2023-02-01T01:51:43.541Z,53.30
2023-02-01T01:52:43.420Z,53.80
2023-02-01T01:53:43.391Z,50.70
2023-02-01T01:54:43.381Z,50.90
2023-02-01T01:55:43.373Z,53.70
2023-02-01T01:56:43.355Z,48.70
2023-02-01T01:57:43.373Z,50.30
2023-02-01T01:58:43.332Z,49.50
2023-02-01T01:59:43.332Z,62.90
2023-02-01T02:00:43.337Z,56.00
2023-02-01T02:01:43.324Z,56.70
2023-02-01T02:02:43.314Z,54.10
2023-02-01T02:03:43.289Z,61.80
2023-02-01T02:04:43.275Z,63.90
2023-02-01T02:05:43.324Z,54.50
2023-02-01T02:06:43.247Z,55.30
2023-02-01T02:07:43.265Z,57.40
2023-02-01T02:08:43.235Z,57.40
2023-02-01T02:09:48.167Z,58.40
2023-02-01T02:10:44.217Z,59.30
2023-02-01T02:11:43.211Z,58.40
2023-02-01T02:12:43.208Z,54.80
2023-02-01T02:13:43.189Z,63.70
2023-02-01T02:14:43.179Z,61.20
2023-02-01T02:15:43.172Z,53.80
2023-02-01T02:16:43.232Z,59.20
2023-02-01T02:17:43.159Z,57.00
2023-02-01T02:18:43.147Z,51.00
2023-02-01T02:19:43.143Z,57.10
2023-02-01T02:20:43.135Z,54.40
2023-02-01T02:21:43.113Z,62.20
2023-02-01T02:22:43.115Z,59.20
2023-02-01T02:23:43.088Z,64.40
2023-02-01T02:24:43.073Z,62.30
2023-02-01T02:25:43.060Z,57.20
2023-02-01T02:26:43.105Z,53.10
2023-02-01T02:27:43.061Z,54.60
2023-02-01T02:28:43.033Z,54.60
2023-02-01T02:29:43.022Z,53.10
2023-02-01T02:30:43.065Z,51.40
2023-02-01T02:31:43.063Z,55.60
2023-02-01T02:32:43.015Z,44.20
2023-02-01T02:33:42.984Z,43.00
2023-02-01T02:34:42.977Z,51.70
2023-02-01T02:35:42.963Z,42.60
2023-02-01T02:36:42.952Z,42.70
2023-02-01T02:37:42.973Z,41.70
2023-02-01T02:38:42.924Z,43.80
2023-02-01T02:39:42.924Z,46.80
2023-02-01T02:40:42.914Z,46.10
2023-02-01T02:41:42.907Z,44.00
2023-02-01T02:42:42.906Z,43.60
2023-02-01T02:43:42.888Z,43.40
2023-02-01T02:44:42.866Z,43.30
2023-02-01T02:45:42.905Z,52.50
2023-02-01T02:46:42.861Z,46.60
2023-02-01T02:47:42.861Z,43.70
2023-02-01T02:48:42.827Z,44.70
2023-02-01T02:49:42.819Z,51.40
2023-02-01T02:50:42.813Z,49.60
2023-02-01T02:51:42.808Z,50.30
2023-02-01T02:52:42.809Z,54.00
2023-02-01T02:53:42.781Z,49.90
2023-02-01T02:54:42.770Z,56.40
2023-02-01T02:55:42.760Z,51.20
2023-02-01T02:56:42.774Z,56.00
2023-02-01T02:57:42.766Z,52.30
2023-02-01T02:58:42.732Z,58.50
2023-02-01T02:59:42.729Z,55.90
2023-02-01T03:00:42.745Z,56.40
2023-02-01T03:01:42.712Z,61.60
2023-02-01T03:02:42.775Z,63.50
2023-02-01T03:03:42.681Z,60.60
2023-02-01T03:04:42.674Z,54.50
2023-02-01T03:05:42.664Z,59.00
2023-02-01T03:06:42.646Z,58.70
2023-02-01T03:07:42.665Z,65.90
2023-02-01T03:08:42.634Z,67.50
2023-02-01T03:09:42.631Z,61.20
2023-02-01T03:10:42.608Z,60.50
2023-02-01T03:11:42.607Z,64.20
2023-02-01T03:12:42.605Z,67.00
2023-02-01T03:13:42.586Z,65.00
2023-02-01T03:14:42.573Z,63.80
2023-02-01T03:15:42.559Z,60.60
2023-02-01T03:16:42.598Z,64.90
2023-02-01T03:17:42.565Z,63.00
2023-02-01T03:18:42.518Z,58.50
2023-02-01T03:19:42.518Z,54.90
2023-02-01T03:20:42.507Z,61.10
2023-02-01T03:21:42.504Z,54.60
2023-02-01T03:22:42.502Z,55.00
2023-02-01T03:23:42.484Z,59.20
2023-02-01T03:24:42.465Z,52.90
2023-02-01T03:25:42.461Z,61.70
2023-02-01T03:26:42.528Z,58.50
2023-02-01T03:27:42.457Z,64.40
2023-02-01T03:28:42.430Z,58.40
2023-02-01T03:29:42.422Z,56.20
2023-02-01T03:30:42.431Z,56.10
2023-02-01T03:31:42.490Z,61.20
2023-02-01T03:32:42.418Z,60.90
2023-02-01T03:33:42.391Z,66.30
2023-02-01T03:34:42.363Z,50.00
2023-02-01T03:35:42.364Z,60.00
2023-02-01T03:36:42.361Z,55.40
2023-02-01T03:37:42.353Z,55.00
2023-02-01T03:38:42.323Z,56.60
2023-02-01T03:39:42.327Z,63.10
2023-02-01T03:40:42.303Z,62.70
2023-02-01T03:41:42.307Z,59.50
2023-02-01T03:42:42.304Z,56.90
2023-02-01T03:43:42.274Z,55.60
2023-02-01T03:44:42.263Z,51.40
2023-02-01T03:45:42.281Z,55.20
2023-02-01T03:46:42.243Z,57.00
2023-02-01T03:47:42.256Z,62.70
2023-02-01T03:48:42.235Z,62.50
2023-02-01T03:49:42.216Z,63.10
2023-02-01T03:50:42.205Z,58.80
2023-02-01T03:51:42.268Z,57.40
2023-02-01T03:52:42.205Z,61.10
2023-02-01T03:53:42.177Z,60.10
2023-02-01T03:54:42.169Z,72.30
2023-02-01T03:55:42.156Z,55.90
2023-02-01T03:56:42.149Z,54.70
2023-02-01T03:57:42.142Z,58.70
2023-02-01T03:58:42.139Z,54.10
2023-02-01T03:59:42.136Z,56.50
2023-02-01T04:00:42.100Z,64.80
2023-02-01T04:01:42.113Z,56.70
2023-02-01T04:02:42.094Z,54.80
2023-02-01T04:03:42.100Z,53.70
2023-02-01T04:04:42.065Z,60.50
2023-02-01T04:05:42.059Z,51.20
2023-02-01T04:06:42.040Z,49.00
2023-02-01T04:07:42.046Z,53.40
2023-02-01T04:08:42.050Z,62.60
2023-02-01T04:09:42.023Z,54.50
2023-02-01T04:10:42.003Z,60.90
2023-02-01T04:11:41.996Z,59.00
2023-02-01T04:12:41.980Z,58.10
2023-02-01T04:13:41.993Z,54.80
2023-02-01T04:14:41.963Z,51.70
2023-02-01T04:15:41.966Z,54.50
2023-02-01T04:16:42.000Z,57.60
2023-02-01T04:17:42.975Z,59.20
2023-02-01T04:18:41.959Z,52.60
2023-02-01T04:19:41.915Z,55.20
2023-02-01T04:20:41.905Z,65.00
2023-02-01T04:21:41.897Z,52.50
2023-02-01T04:22:41.885Z,56.10
2023-02-01T04:23:41.896Z,46.10
2023-02-01T04:24:41.866Z,57.30
2023-02-01T04:25:41.860Z,59.30
2023-02-01T04:26:41.880Z,55.80
2023-02-01T04:27:47.097Z,51.70
2023-02-01T04:28:41.835Z,50.90
2023-02-01T04:29:41.815Z,57.00
2023-02-01T04:30:41.927Z,59.90
2023-02-01T04:31:41.890Z,51.80
2023-02-01T04:32:41.790Z,53.60
2023-02-01T04:33:41.789Z,54.40
2023-02-01T04:34:41.759Z,53.50
2023-02-01T04:35:41.752Z,47.60
2023-02-01T04:36:41.742Z,46.20
2023-02-01T04:37:41.734Z,52.50
2023-02-01T04:38:41.749Z,58.30
2023-02-01T04:39:41.712Z,56.40
2023-02-01T04:40:41.704Z,54.80
2023-02-01T04:41:41.691Z,57.50
2023-02-01T04:42:41.690Z,50.80
2023-02-01T04:43:41.691Z,48.00
2023-02-01T04:44:41.661Z,49.50
2023-02-01T04:45:41.653Z,48.50
2023-02-01T04:46:41.640Z,50.50
2023-02-01T04:47:41.636Z,52.60
2023-02-01T04:48:41.645Z,51.20
2023-02-01T04:49:41.611Z,50.00
2023-02-01T04:50:41.594Z,50.90
2023-02-01T04:51:41.596Z,48.10
2023-02-01T04:52:41.574Z,50.00
2023-02-01T04:53:41.592Z,54.80
2023-02-01T04:54:41.554Z,47.90
2023-02-01T04:55:41.553Z,50.60
2023-02-01T04:56:41.563Z,50.20
2023-02-01T04:57:41.535Z,52.40
2023-02-01T04:58:41.545Z,48.90
2023-02-01T04:59:41.517Z,47.90
2023-02-01T05:00:41.502Z,44.30
2023-02-01T05:01:41.535Z,52.60
2023-02-01T05:02:41.475Z,49.10
2023-02-01T05:03:41.492Z,48.90
2023-02-01T05:04:41.561Z,50.50
2023-02-01T05:05:41.450Z,49.70
2023-02-01T05:06:41.437Z,45.80
2023-02-01T05:07:41.436Z,49.40
2023-02-01T05:08:41.438Z,50.50
2023-02-01T05:09:41.406Z,50.30
2023-02-01T05:10:41.393Z,48.60
2023-02-01T05:11:41.396Z,46.40
2023-02-01T05:12:41.371Z,46.90
2023-02-01T05:13:41.399Z,44.70
2023-02-01T05:14:41.350Z,43.20
2023-02-01T05:15:41.385Z,45.30
2023-02-01T05:16:41.339Z,45.10
2023-02-01T05:17:41.380Z,45.60
2023-02-01T05:18:41.332Z,50.00
2023-02-01T05:19:41.303Z,40.50
2023-02-01T05:20:41.295Z,54.70
2023-02-01T05:21:41.299Z,45.10
2023-02-01T05:22:41.273Z,46.40
2023-02-01T05:23:41.288Z,49.90
2023-02-01T05:24:41.263Z,48.60
2023-02-01T05:25:41.245Z,46.20
2023-02-01T05:26:41.270Z,46.20
2023-02-01T05:27:41.225Z,50.40
2023-02-01T05:28:41.233Z,50.90
2023-02-01T05:29:41.204Z,48.20
2023-02-01T05:30:42.441Z,44.90
2023-02-01T05:31:41.290Z,50.50
2023-02-01T05:32:41.201Z,45.90
2023-02-01T05:33:41.176Z,49.60
2023-02-01T05:34:41.157Z,47.40
2023-02-01T05:35:41.138Z,50.80
2023-02-01T05:36:41.137Z,43.80
2023-02-01T05:37:41.128Z,47.70
2023-02-01T05:38:41.139Z,45.20
2023-02-01T05:39:41.099Z,47.50
2023-02-01T05:40:41.098Z,43.30
2023-02-01T05:41:41.079Z,47.10
2023-02-01T05:42:41.079Z,47.10
2023-02-01T05:43:41.083Z,47.40
2023-02-01T05:44:41.063Z,42.60
2023-02-01T05:45:41.041Z,49.80
2023-02-01T05:46:41.115Z,48.60
2023-02-01T05:47:41.017Z,43.10
2023-02-01T05:48:41.036Z,43.30
2023-02-01T05:49:41.001Z,54.60
2023-02-01T05:50:41.001Z,47.70
2023-02-01T05:51:41.002Z,39.40
2023-02-01T05:52:40.974Z,48.40
2023-02-01T05:53:40.986Z,48.20
2023-02-01T05:54:40.952Z,45.60
2023-02-01T05:55:40.934Z,52.70
2023-02-01T05:56:40.935Z,47.20
2023-02-01T05:57:40.917Z,43.40
2023-02-01T05:58:40.933Z,41.10
2023-02-01T05:59:40.915Z,50.70
2023-02-01T06:00:40.898Z,41.40
2023-02-01T06:01:40.875Z,43.60
2023-02-01T06:02:40.926Z,48.50
2023-02-01T06:03:40.924Z,43.10
2023-02-01T06:04:40.856Z,46.10
2023-02-01T06:05:40.845Z,48.20
2023-02-01T06:06:40.838Z,45.60
2023-02-01T06:07:40.822Z,49.20
2023-02-01T06:08:40.843Z,41.10
2023-02-01T06:09:40.803Z,47.10
2023-02-01T06:10:40.803Z,51.30
2023-02-01T06:11:40.780Z,46.30
2023-02-01T06:12:40.792Z,44.80
2023-02-01T06:13:40.779Z,51.90
2023-02-01T06:14:40.750Z,50.00
2023-02-01T06:15:40.752Z,44.30
2023-02-01T06:16:40.728Z,45.40
2023-02-01T06:17:40.720Z,40.10
2023-02-01T06:18:40.730Z,49.10
2023-02-01T06:19:40.728Z,45.40
2023-02-01T06:20:40.690Z,45.80
2023-02-01T06:21:40.681Z,42.30
2023-02-01T06:22:40.679Z,46.60
2023-02-01T06:23:40.684Z,44.60
2023-02-01T06:24:40.661Z,43.20
2023-02-01T06:25:40.641Z,42.90
2023-02-01T06:26:40.708Z,45.50
2023-02-01T06:27:40.622Z,48.40
2023-02-01T06:28:40.638Z,45.20
2023-02-01T06:29:40.596Z,42.00
2023-02-01T06:30:40.614Z,43.40
2023-02-01T06:31:40.677Z,47.60
2023-02-01T06:32:40.582Z,43.70
2023-02-01T06:33:40.580Z,45.50
2023-02-01T06:34:40.561Z,46.10
2023-02-01T06:35:40.536Z,44.70
2023-02-01T06:36:40.525Z,44.30
2023-02-01T06:37:40.519Z,39.80
2023-02-01T06:38:40.565Z,44.90
2023-02-01T06:39:40.497Z,51.60
2023-02-01T06:40:40.486Z,39.30
2023-02-01T06:41:40.480Z,48.50
2023-02-01T06:42:40.469Z,40.10
2023-02-01T06:43:40.468Z,44.10
2023-02-01T06:44:40.459Z,43.30
2023-02-01T06:45:40.429Z,45.70
2023-02-01T06:46:40.455Z,43.90
2023-02-01T06:47:40.422Z,47.60
2023-02-01T06:48:40.444Z,40.40
2023-02-01T06:49:40.400Z,45.40
2023-02-01T06:50:40.393Z,44.30
2023-02-01T06:51:40.387Z,42.00
2023-02-01T06:52:40.381Z,42.20
2023-02-01T06:53:40.370Z,45.30
2023-02-01T06:54:40.342Z,46.70
2023-02-01T06:55:40.342Z,42.20
2023-02-01T06:56:40.323Z,45.10
2023-02-01T06:57:40.333Z,41.90
2023-02-01T06:58:40.331Z,44.70
2023-02-01T06:59:40.291Z,42.90
2023-02-01T07:00:40.316Z,40.80
2023-02-01T07:01:40.299Z,39.10
2023-02-01T07:02:40.230Z,38.30
2023-02-01T07:03:40.224Z,39.20
2023-02-01T07:04:40.197Z,39.10
2023-02-01T07:05:40.194Z,43.00
2023-02-01T07:06:40.173Z,40.30
2023-02-01T07:07:40.155Z,39.80
2023-02-01T07:08:40.285Z,44.50
2023-02-01T07:09:40.135Z,36.80
2023-02-01T07:10:40.138Z,35.80
2023-02-01T07:11:40.116Z,41.90
2023-02-01T07:12:40.151Z,40.70
2023-02-01T07:13:40.108Z,45.00
2023-02-01T07:14:40.146Z,34.30
2023-02-01T07:15:40.148Z,40.90
2023-02-01T07:16:40.145Z,35.60
2023-02-01T07:17:40.057Z,33.60
2023-02-01T07:18:40.059Z,39.40
2023-02-01T07:19:40.068Z,39.20
2023-02-01T07:20:40.033Z,40.00
2023-02-01T07:21:40.029Z,45.80
2023-02-01T07:22:40.018Z,40.00
2023-02-01T07:23:40.002Z,48.70
2023-02-01T07:24:40.008Z,40.10
2023-02-01T07:25:39.993Z,39.50
2023-02-01T07:26:40.121Z,41.50
2023-02-01T07:27:39.950Z,34.50
2023-02-01T07:28:39.967Z,38.20
2023-02-01T07:29:39.951Z,39.30
2023-02-01T07:30:39.970Z,38.70
2023-02-01T07:31:39.913Z,40.10
2023-02-01T07:32:39.950Z,39.40
2023-02-01T07:33:39.919Z,40.20
2023-02-01T07:34:39.912Z,39.50
2023-02-01T07:35:39.876Z,43.30
2023-02-01T07:36:39.871Z,47.40
2023-02-01T07:37:39.859Z,43.00
2023-02-01T07:38:39.857Z,42.90
2023-02-01T07:39:39.853Z,38.20
2023-02-01T07:40:39.826Z,37.00
2023-02-01T07:41:39.848Z,40.70
2023-02-01T07:42:39.807Z,41.00
2023-02-01T07:43:39.802Z,42.00
2023-02-01T07:44:39.816Z,41.50
2023-02-01T07:45:39.783Z,42.90
2023-02-01T07:46:39.766Z,41.20
2023-02-01T07:47:39.758Z,39.50
2023-02-01T07:48:39.747Z,44.50
2023-02-01T07:49:39.748Z,38.60
2023-02-01T07:50:39.735Z,37.80
2023-02-01T07:51:39.712Z,40.70
2023-02-01T07:52:39.707Z,41.70
2023-02-01T07:53:39.702Z,37.70
2023-02-01T07:54:39.707Z,39.90
2023-02-01T07:55:39.673Z,41.90
2023-02-01T07:56:39.671Z,34.90
2023-02-01T07:57:39.657Z,38.20
2023-02-01T07:58:39.664Z,33.40
2023-02-01T07:59:39.650Z,39.60
2023-02-01T08:00:39.634Z,43.90
2023-02-01T08:01:39.610Z,38.90
2023-02-01T08:02:39.607Z,37.50
2023-02-01T08:03:39.589Z,40.60
2023-02-01T08:04:39.603Z,37.00
2023-02-01T08:05:39.573Z,39.90
2023-02-01T08:06:39.563Z,40.40
2023-02-01T08:07:39.562Z,40.30
2023-02-01T08:08:39.558Z,34.90
2023-02-01T08:09:39.556Z,38.40
2023-02-01T08:10:39.522Z,39.60
2023-02-01T08:11:39.511Z,33.00
2023-02-01T08:12:39.504Z,40.90
2023-02-01T08:13:39.491Z,33.30
2023-02-01T08:14:39.504Z,34.10
2023-02-01T08:15:39.476Z,37.10
2023-02-01T08:16:39.511Z,35.00
2023-02-01T08:17:39.451Z,39.90
2023-02-01T08:18:39.450Z,30.00
2023-02-01T08:19:39.445Z,32.40
2023-02-01T08:20:39.426Z,33.60
2023-02-01T08:21:39.423Z,34.30
2023-02-01T08:22:39.404Z,33.90
2023-02-01T08:23:39.391Z,29.90
2023-02-01T08:24:39.398Z,33.20
2023-02-01T08:25:39.368Z,34.60
2023-02-01T08:26:39.396Z,41.90
2023-02-01T08:27:39.348Z,34.80
2023-02-01T08:28:39.339Z,33.00
2023-02-01T08:29:39.349Z,39.60
2023-02-01T08:30:39.433Z,35.30
2023-02-01T08:31:39.335Z,37.10
2023-02-01T08:32:39.301Z,34.90
2023-02-01T08:33:39.289Z,31.10
2023-02-01T08:34:39.308Z,35.30
2023-02-01T08:35:43.712Z,33.40
2023-02-01T08:36:40.269Z,32.30
2023-02-01T08:37:39.267Z,31.60
2023-02-01T08:38:39.253Z,32.40
2023-02-01T08:39:39.250Z,34.20
2023-02-01T08:40:39.227Z,30.50
2023-02-01T08:41:39.204Z,34.30
2023-02-01T08:42:39.201Z,32.20
2023-02-01T08:43:39.211Z,35.70
2023-02-01T08:44:39.193Z,31.60
2023-02-01T08:45:39.222Z,33.00
2023-02-01T08:46:39.172Z,39.90
2023-02-01T08:47:39.153Z,28.80
2023-02-01T08:48:39.134Z,34.00
2023-02-01T08:49:39.155Z,38.20
2023-02-01T08:50:39.119Z,35.00
2023-02-01T08:51:39.107Z,32.40
2023-02-01T08:52:39.096Z,42.50
2023-02-01T08:53:39.096Z,36.00
2023-02-01T08:54:39.097Z,35.90
2023-02-01T08:55:39.063Z,35.30
2023-02-01T08:56:39.106Z,39.40
2023-02-01T08:57:39.044Z,37.00
2023-02-01T08:58:39.045Z,34.60
2023-02-01T08:59:39.053Z,33.80
2023-02-01T09:00:39.022Z,42.20
2023-02-01T09:01:39.029Z,34.50
2023-02-01T09:02:39.009Z,38.00
2023-02-01T09:03:39.016Z,37.40
2023-02-01T09:04:38.996Z,36.50
2023-02-01T09:05:49.108Z,33.70
2023-02-01T09:06:39.957Z,38.50
2023-02-01T09:07:38.951Z,45.50
2023-02-01T09:08:38.951Z,40.20
2023-02-01T09:09:38.942Z,39.60
2023-02-01T09:10:39.229Z,37.40
2023-02-01T09:11:38.903Z,38.50
2023-02-01T09:12:38.912Z,39.10
2023-02-01T09:13:38.905Z,44.30
2023-02-01T09:14:38.957Z,41.10
2023-02-01T09:15:38.964Z,35.20
2023-02-01T09:16:39.203Z,34.00
2023-02-01T09:17:38.861Z,37.10
2023-02-01T09:18:46.048Z,39.30
2023-02-01T09:19:41.523Z,45.40
2023-02-01T09:20:38.837Z,39.40
2023-02-01T09:21:38.798Z,37.70
2023-02-01T09:22:38.799Z,40.40
2023-02-01T09:23:38.776Z,36.00
2023-02-01T09:24:38.867Z,38.00
2023-02-01T09:25:38.810Z,39.80
2023-02-01T09:26:38.782Z,38.10
2023-02-01T09:27:38.750Z,33.80
2023-02-01T09:28:38.739Z,35.60
2023-02-01T09:29:38.743Z,38.60
2023-02-01T09:30:38.812Z,38.00
2023-02-01T09:31:40.068Z,37.80
2023-02-01T09:32:38.703Z,36.60
2023-02-01T09:33:38.678Z,38.20
2023-02-01T09:34:38.698Z,41.10
2023-02-01T09:35:38.659Z,37.10
2023-02-01T09:36:38.657Z,42.80
2023-02-01T09:37:38.638Z,37.00
2023-02-01T09:38:41.710Z,42.60
2023-02-01T09:39:38.642Z,34.20
2023-02-01T09:40:38.612Z,31.90
2023-02-01T09:41:38.592Z,38.10
2023-02-01T09:42:38.591Z,31.30
2023-02-01T09:43:38.578Z,29.70
2023-02-01T09:44:44.387Z,33.60
2023-02-01T09:45:39.562Z,30.60
2023-02-01T09:46:38.554Z,32.30
2023-02-01T09:47:38.543Z,33.00
2023-02-01T09:48:38.556Z,33.60
2023-02-01T09:49:38.543Z,30.50
2023-02-01T09:50:38.501Z,36.80
2023-02-01T09:51:38.511Z,36.30
2023-02-01T09:52:38.484Z,30.40
2023-02-01T09:53:38.482Z,38.40
2023-02-01T09:54:38.484Z,34.10
2023-02-01T09:55:38.466Z,32.20
2023-02-01T09:56:38.446Z,39.60
2023-02-01T09:57:38.445Z,36.30
2023-02-01T09:58:38.426Z,34.90
2023-02-01T09:59:38.418Z,36.30
2023-02-01T10:00:38.416Z,34.10
2023-02-01T10:01:38.440Z,32.60
2023-02-01T10:02:38.386Z,30.40
2023-02-01T10:03:38.429Z,34.90
2023-02-01T10:04:38.370Z,31.70
2023-02-01T10:05:38.382Z,37.20
2023-02-01T10:06:38.357Z,33.60
2023-02-01T10:07:38.346Z,34.60
2023-02-01T10:08:38.325Z,31.90
2023-02-01T10:09:38.319Z,33.80
2023-02-01T10:10:38.320Z,31.30
2023-02-01T10:11:38.306Z,32.60
2023-02-01T10:12:38.292Z,35.80
2023-02-01T10:13:38.283Z,34.20
2023-02-01T10:14:38.273Z,36.80
2023-02-01T10:15:38.349Z,32.20
2023-02-01T10:16:38.337Z,33.70
2023-02-01T10:17:38.245Z,35.70
2023-02-01T10:18:38.220Z,42.50
2023-02-01T10:19:38.213Z,41.20
2023-02-01T10:20:38.213Z,35.50
2023-02-01T10:21:38.196Z,31.40
2023-02-01T10:23:00.284Z,40.40
2023-02-01T10:23:39.174Z,34.80
2023-02-01T10:24:38.182Z,32.70
2023-02-01T10:25:38.181Z,33.80
2023-02-01T10:26:38.182Z,39.80
2023-02-01T10:27:38.141Z,35.30
2023-02-01T10:28:38.118Z,37.00
2023-02-01T10:29:38.140Z,33.50
2023-02-01T10:30:38.127Z,37.70
2023-02-01T10:31:38.237Z,35.80
2023-02-01T10:32:38.086Z,38.20
2023-02-01T10:33:38.065Z,39.60
2023-02-01T10:34:38.058Z,35.70
2023-02-01T10:35:38.071Z,38.30
2023-02-01T10:36:38.038Z,34.10
2023-02-01T10:37:38.048Z,39.10
2023-02-01T10:38:38.010Z,36.50
2023-02-01T10:39:38.007Z,35.60
2023-02-01T10:40:38.038Z,35.90
2023-02-01T10:41:37.990Z,34.00
2023-02-01T10:42:37.978Z,41.10
2023-02-01T10:43:37.975Z,37.50
2023-02-01T10:44:37.964Z,34.00
2023-02-01T10:45:37.971Z,32.90
2023-02-01T10:46:37.982Z,36.40
2023-02-01T10:47:37.963Z,37.00
2023-02-01T10:48:37.914Z,33.40
2023-02-01T10:49:37.913Z,40.70
2023-02-01T10:50:37.922Z,41.30
2023-02-01T10:51:37.893Z,35.50
2023-02-01T10:52:37.890Z,37.90
2023-02-01T10:53:37.874Z,37.90
2023-02-01T10:54:37.854Z,38.50
2023-02-01T10:55:39.971Z,37.00
2023-02-01T10:56:37.832Z,34.60
2023-02-01T10:57:37.834Z,37.60
2023-02-01T10:58:37.813Z,43.20
2023-02-01T10:59:37.806Z,38.90
2023-02-01T11:00:37.827Z,38.10
2023-02-01T11:01:37.852Z,45.40
2023-02-01T11:02:37.777Z,33.90
2023-02-01T11:03:37.770Z,34.20
2023-02-01T11:04:37.757Z,32.40
2023-02-01T11:05:37.766Z,36.10
2023-02-01T11:06:37.731Z,35.80
2023-02-01T11:07:37.727Z,40.10
2023-02-01T11:08:37.709Z,41.50
2023-02-01T11:09:37.709Z,41.10
2023-02-01T11:10:37.751Z,37.10
2023-02-01T11:11:37.684Z,40.40
2023-02-01T11:12:37.671Z,40.10
2023-02-01T11:13:37.686Z,42.80
2023-02-01T11:14:37.651Z,38.00
2023-02-01T11:15:37.659Z,39.80
2023-02-01T11:16:37.633Z,37.80
2023-02-01T11:17:37.620Z,36.20
2023-02-01T11:18:37.614Z,39.50
2023-02-01T11:19:37.603Z,43.30
2023-02-01T11:20:37.610Z,37.50
2023-02-01T11:21:38.893Z,36.10
2023-02-01T11:22:37.573Z,37.10
2023-02-01T11:23:37.574Z,35.20
2023-02-01T11:24:37.552Z,40.30
2023-02-01T11:25:37.560Z,37.80
2023-02-01T11:26:37.555Z,48.10
2023-02-01T11:27:43.092Z,42.40
2023-02-01T11:28:38.505Z,39.30
2023-02-01T11:29:37.496Z,37.00
2023-02-01T11:30:37.562Z,39.70
2023-02-01T11:31:37.561Z,43.10
2023-02-01T11:32:37.456Z,42.70
2023-02-01T11:33:37.457Z,36.20
2023-02-01T11:34:37.457Z,31.30
2023-02-01T11:35:37.456Z,37.90
2023-02-01T11:36:37.427Z,42.40
2023-02-01T11:37:37.421Z,36.40
2023-02-01T11:38:37.517Z,34.80
2023-02-01T11:39:37.399Z,39.40
2023-02-01T11:40:37.406Z,35.80
2023-02-01T11:41:37.378Z,42.50
2023-02-01T11:42:37.360Z,42.00
2023-02-01T11:43:37.359Z,36.20
2023-02-01T11:44:37.346Z,41.20
2023-02-01T11:45:37.359Z,36.10
2023-02-01T11:46:37.365Z,29.50
2023-02-01T11:47:37.321Z,36.00
2023-02-01T11:48:37.305Z,33.60
2023-02-01T11:49:37.306Z,36.30
2023-02-01T11:50:37.313Z,36.90
2023-02-01T11:51:37.276Z,32.50
2023-02-01T11:52:37.303Z,32.90
2023-02-01T11:53:37.253Z,36.00
2023-02-01T11:54:37.806Z,33.10
2023-02-01T11:55:37.266Z,33.80
2023-02-01T11:56:37.246Z,29.20
2023-02-01T11:57:37.214Z,30.40
2023-02-01T11:58:37.217Z,28.20
2023-02-01T11:59:40.842Z,33.40
2023-02-01T12:00:37.194Z,30.40
2023-02-01T12:01:37.211Z,31.10
2023-02-01T12:02:37.155Z,29.10
2023-02-01T12:03:37.192Z,32.20
2023-02-01T12:04:37.139Z,32.00
2023-02-01T12:05:37.146Z,33.70
2023-02-01T12:06:37.135Z,41.00
2023-02-01T12:07:37.108Z,31.50
2023-02-01T12:08:37.097Z,32.30
2023-02-01T12:09:37.088Z,33.30
2023-02-01T12:10:37.095Z,32.50
2023-02-01T12:11:37.072Z,33.30
2023-02-01T12:12:37.057Z,33.90
2023-02-01T12:13:37.047Z,29.80
2023-02-01T12:14:37.154Z,30.60
2023-02-01T12:15:37.040Z,31.40
2023-02-01T12:16:37.026Z,27.90
2023-02-01T12:17:37.009Z,32.50
2023-02-01T12:18:36.991Z,33.80
2023-02-01T12:19:37.002Z,30.80
2023-02-01T12:20:37.022Z,27.80
2023-02-01T12:21:37.009Z,30.50
2023-02-01T12:22:36.943Z,25.20
2023-02-01T12:23:36.944Z,26.30
2023-02-01T12:24:36.932Z,31.40
2023-02-01T12:25:36.962Z,34.50
2023-02-01T12:26:36.950Z,26.80
2023-02-01T12:27:36.914Z,31.20
2023-02-01T12:28:36.892Z,27.00
2023-02-01T12:29:36.895Z,24.50
2023-02-01T12:30:36.929Z,31.70
2023-02-01T12:31:36.949Z,32.70
2023-02-01T12:32:36.845Z,26.50
2023-02-01T12:33:36.848Z,33.00
2023-02-01T12:34:36.831Z,25.60
2023-02-01T12:35:36.836Z,29.80
2023-02-01T12:36:36.810Z,27.90
2023-02-01T12:37:36.808Z,31.20
2023-02-01T12:38:36.794Z,29.30
2023-02-01T12:39:36.787Z,27.60
2023-02-01T12:40:36.783Z,29.90
2023-02-01T12:41:36.769Z,26.60
2023-02-01T12:42:36.748Z,29.00
2023-02-01T12:43:36.739Z,26.30
2023-02-01T12:44:36.730Z,30.00
2023-02-01T12:45:36.766Z,29.10
2023-02-01T12:46:36.711Z,30.10
2023-02-01T12:47:36.700Z,31.90
2023-02-01T12:48:36.691Z,26.20
2023-02-01T12:49:36.672Z,32.20
2023-02-01T12:50:36.679Z,24.70
2023-02-01T12:51:36.672Z,30.30
2023-02-01T12:52:36.651Z,29.30